Time;durP1;ratioP1;P1;durP2;ratioP2;P2;SDS_P1;SDS_P2;PMS_P1;PMS_P2;Temp;Humidity;BMP_temperature;BMP_pressure;BME280_temperature;BME280_humidity;BME280_pressure;Samples;Min_cycle;Max_cycle;Signal;HPM_P1;HPM_P2
2022/03/02 00:02:45;;;;;;;113.00;44.45;;;;;;;-3.92;66.80;101531.84;2189738;80;20938;-74
2022/03/02 00:05:46;;;;;;;108.65;44.03;;;;;;;-4.08;67.03;101528.80;2170829;80;20994;-74
2022/03/02 00:08:48;;;;;;;93.45;39.63;;;;;;;-4.18;67.22;101522.14;2174373;80;21077;-73
2022/03/02 00:11:54;;;;;;;92.53;37.88;;;;;;;-4.31;67.22;101531.09;2171081;80;21033;-74
2022/03/02 00:14:55;;;;;;;92.90;39.35;;;;;;;-4.43;67.41;101533.55;2137398;81;21071;-74
2022/03/02 00:17:57;;;;;;;98.12;42.55;;;;;;;-4.51;67.56;101532.42;2136472;81;20990;-73
2022/03/02 00:20:58;;;;;;;107.10;43.13;;;;;;;-4.51;67.83;101536.76;2175183;80;21040;-74
2022/03/02 00:24:03;;;;;;;102.35;40.08;;;;;;;-4.47;67.92;101529.79;2188230;80;21009;-74
2022/03/02 00:27:04;;;;;;;122.55;46.45;;;;;;;-4.45;67.81;101527.98;2187962;80;21559;-74
2022/03/02 00:30:10;;;;;;;109.52;46.02;;;;;;;-4.45;67.66;101531.87;2182795;80;21065;-75
2022/03/02 00:33:12;;;;;;;98.60;40.83;;;;;;;-4.43;67.60;101529.66;2184495;80;21462;-74
2022/03/02 00:36:15;;;;;;;112.77;45.17;;;;;;;-4.37;67.44;101524.77;2188605;80;21092;-73
2022/03/02 00:39:17;;;;;;;108.85;43.42;;;;;;;-4.29;67.27;101524.14;2184553;80;20955;-73
2022/03/02 00:42:20;;;;;;;110.55;42.25;;;;;;;-4.27;67.16;101524.97;2189411;80;21056;-74
2022/03/02 00:45:22;;;;;;;94.83;40.67;;;;;;;-4.29;66.99;101522.84;2186785;80;21067;-74
2022/03/02 00:48:24;;;;;;;93.10;40.73;;;;;;;-4.30;67.49;101520.70;2172885;80;21042;-75
2022/03/02 00:51:26;;;;;;;99.58;39.95;;;;;;;-4.41;67.53;101512.80;2141761;81;21635;-73
2022/03/02 00:54:28;;;;;;;97.55;42.10;;;;;;;-4.43;67.71;101523.18;2191464;80;21503;-73
2022/03/02 00:57:30;;;;;;;104.92;41.37;;;;;;;-4.36;67.74;101523.45;2188009;80;21005;-73
2022/03/02 01:00:32;;;;;;;95.15;41.42;;;;;;;-4.32;67.52;101512.11;2189804;80;21037;-74
2022/03/02 01:03:33;;;;;;;95.75;40.20;;;;;;;-4.24;67.59;101508.49;2159026;80;20982;-73
2022/03/02 01:06:35;;;;;;;97.47;40.25;;;;;;;-4.18;67.35;101503.99;2190407;80;21053;-74
2022/03/02 01:09:36;;;;;;;93.85;38.63;;;;;;;-4.18;67.17;101496.66;2172193;80;21007;-74
2022/03/02 01:12:39;;;;;;;99.62;40.28;;;;;;;-4.29;67.12;101499.07;2135285;81;21052;-74
2022/03/02 01:15:41;;;;;;;99.80;41.00;;;;;;;-4.26;67.49;101494.26;2173110;80;21109;-74
2022/03/02 01:18:43;;;;;;;92.00;38.30;;;;;;;-4.26;67.35;101491.67;2132296;81;21032;-73
2022/03/02 01:21:44;;;;;;;96.32;39.80;;;;;;;-4.39;67.31;101493.73;2187610;80;20997;-75
2022/03/02 01:24:46;;;;;;;86.95;37.93;;;;;;;-4.49;67.66;101488.80;2175249;80;21065;-73
2022/03/02 01:27:47;;;;;;;97.82;40.85;;;;;;;-4.52;67.62;101478.91;2187999;80;21055;-73
2022/03/02 01:30:49;;;;;;;96.80;39.27;;;;;;;-4.46;67.82;101482.25;2212591;79;21556;-73
2022/03/02 01:33:52;;;;;;;100.70;40.70;;;;;;;-4.44;67.99;101477.89;2216810;79;20986;-74
2022/03/02 01:36:53;;;;;;;117.60;43.30;;;;;;;-4.61;67.95;101474.41;2184961;79;21041;-73
2022/03/02 01:39:55;;;;;;;97.45;40.88;;;;;;;-4.64;68.29;101477.93;2209022;79;21036;-73
2022/03/02 01:42:56;;;;;;;99.03;39.20;;;;;;;-4.58;68.06;101467.86;2210135;79;21021;-74
2022/03/02 01:45:58;;;;;;;95.75;38.10;;;;;;;-4.49;68.12;101462.89;2160817;81;21041;-73
2022/03/02 01:48:59;;;;;;;89.22;37.70;;;;;;;-4.47;68.30;101463.27;2164521;80;21007;-74
2022/03/02 01:52:03;;;;;;;97.35;39.23;;;;;;;-4.46;68.43;101452.00;2205816;79;21021;-73
2022/03/02 01:55:07;;;;;;;98.72;38.98;;;;;;;-4.43;67.97;101458.85;2213139;79;22303;-74
2022/03/02 01:58:09;;;;;;;91.02;38.50;;;;;;;-4.46;67.60;101453.75;2212449;79;21028;-75
2022/03/02 02:01:12;;;;;;;79.47;35.60;;;;;;;-4.57;67.61;101448.38;2142557;81;21097;-74
2022/03/02 02:04:13;;;;;;;85.03;35.25;;;;;;;-4.56;67.69;101446.22;2211055;79;22513;-73
2022/03/02 02:07:15;;;;;;;87.08;34.78;;;;;;;-4.57;68.15;101439.77;2210640;79;21597;-74
2022/03/02 02:10:17;;;;;;;91.57;36.93;;;;;;;-4.63;68.27;101434.29;2111901;81;21060;-74
2022/03/02 02:13:19;;;;;;;89.97;34.30;;;;;;;-4.80;68.36;101429.97;2205610;79;21056;-74
2022/03/02 02:16:21;;;;;;;78.15;34.78;;;;;;;-4.85;68.64;101422.75;2185991;79;22366;-73
2022/03/02 02:19:23;;;;;;;83.27;33.98;;;;;;;-4.89;68.15;101421.98;2183710;79;21351;-73
2022/03/02 02:22:25;;;;;;;79.65;35.08;;;;;;;-4.91;68.49;101421.61;2210226;80;21016;-73
2022/03/02 02:25:26;;;;;;;87.40;35.63;;;;;;;-4.99;68.60;101425.21;2204736;80;21017;-73
2022/03/02 02:28:31;;;;;;;78.00;34.58;;;;;;;-5.13;68.46;101418.21;2210916;80;21649;-73
2022/03/02 02:31:32;;;;;;;72.75;33.10;;;;;;;-5.25;68.67;101421.09;2188345;80;21005;-74
2022/03/02 02:34:34;;;;;;;84.75;35.33;;;;;;;-5.24;68.95;101414.59;2185467;80;21092;-73
2022/03/02 02:37:37;;;;;;;80.95;35.10;;;;;;;-5.14;68.76;101413.94;2182118;80;21029;-74
2022/03/02 02:40:40;;;;;;;76.62;33.02;;;;;;;-5.14;68.66;101415.23;2186361;80;21025;-73
2022/03/02 02:43:42;;;;;;;72.23;33.17;;;;;;;-5.07;68.88;101406.87;2175816;80;21035;-73
2022/03/02 02:46:45;;;;;;;81.87;34.13;;;;;;;-5.01;68.91;101402.41;2189224;80;21060;-73
2022/03/02 02:49:47;;;;;;;76.77;33.70;;;;;;;-5.10;68.70;101402.61;2190454;80;21509;-74
2022/03/02 02:52:50;;;;;;;75.20;32.60;;;;;;;-5.20;68.81;101403.73;2158170;80;21488;-73
2022/03/02 02:55:53;;;;;;;80.45;35.45;;;;;;;-5.25;69.16;101406.86;2189688;80;21081;-73
2022/03/02 02:58:54;;;;;;;90.45;37.80;;;;;;;-5.24;69.31;101400.78;2190329;80;21029;-74
2022/03/02 03:01:56;;;;;;;88.57;38.90;;;;;;;-5.24;69.55;101400.37;2196503;80;20998;-74
2022/03/02 03:04:57;;;;;;;85.32;38.98;;;;;;;-5.25;69.60;101397.35;2186196;80;21017;-73
2022/03/02 03:08:06;;;;;;;81.63;35.87;;;;;;;-5.24;69.67;101395.19;2192973;80;21311;-73
2022/03/02 03:11:08;;;;;;;87.13;37.63;;;;;;;-5.13;69.81;101392.78;2188930;80;21033;-74
2022/03/02 03:14:14;;;;;;;88.83;38.17;;;;;;;-5.11;69.74;101388.42;2192619;80;21021;-74
2022/03/02 03:17:15;;;;;;;92.60;37.30;;;;;;;-5.05;69.71;101390.41;2191960;80;21048;-74
2022/03/02 03:20:20;;;;;;;87.30;37.97;;;;;;;-5.09;69.20;101378.89;2190374;80;21001;-73
2022/03/02 03:23:24;;;;;;;96.10;37.73;;;;;;;-5.07;69.33;101384.41;2188836;80;21099;-74
2022/03/02 03:26:26;;;;;;;82.70;36.77;;;;;;;-5.09;69.35;101396.56;2189487;80;21014;-73
2022/03/02 03:29:27;;;;;;;78.37;35.73;;;;;;;-5.08;69.61;101386.61;2194873;80;21065;-74
2022/03/02 03:32:29;;;;;;;78.65;33.88;;;;;;;-5.07;69.60;101387.45;2193461;80;21056;-73
2022/03/02 03:35:31;;;;;;;75.57;34.53;;;;;;;-5.08;69.65;101388.35;2196142;80;21014;-74
2022/03/02 03:38:33;;;;;;;78.22;34.78;;;;;;;-5.06;69.62;101382.25;2163292;80;21626;-73
2022/03/02 03:41:38;;;;;;;72.70;34.27;;;;;;;-5.05;69.47;101393.00;2194759;80;21038;-73
2022/03/02 03:44:39;;;;;;;83.00;36.68;;;;;;;-5.13;68.96;101393.63;2196310;80;21014;-74
2022/03/02 03:47:42;;;;;;;78.13;33.83;;;;;;;-5.23;68.93;101396.88;2195543;80;21516;-74
2022/03/02 03:50:44;;;;;;;85.87;34.40;;;;;;;-5.26;69.21;101392.23;2195572;80;21687;-73
2022/03/02 03:53:46;;;;;;;82.80;35.10;;;;;;;-5.25;69.25;101385.70;2196975;80;20990;-73
2022/03/02 03:56:48;;;;;;;82.43;36.57;;;;;;;-5.22;69.48;101381.75;2193611;80;21033;-74
2022/03/02 03:59:50;;;;;;;91.57;38.45;;;;;;;-5.19;69.63;101375.66;2196790;80;21035;-74
2022/03/02 04:02:51;;;;;;;85.77;37.37;;;;;;;-5.19;69.45;101369.19;2196528;80;21013;-74
2022/03/02 04:05:53;;;;;;;82.53;35.33;;;;;;;-5.23;69.37;101384.39;2199245;80;20973;-73
2022/03/02 04:08:54;;;;;;;83.20;36.17;;;;;;;-5.23;69.60;101376.63;2198687;80;20970;-73
2022/03/02 04:11:57;;;;;;;85.13;37.63;;;;;;;-5.22;69.68;101378.32;2196285;80;21026;-73
2022/03/02 04:14:59;;;;;;;83.70;37.33;;;;;;;-5.19;69.71;101373.07;2197633;80;21076;-74
2022/03/02 04:18:00;;;;;;;82.90;36.77;;;;;;;-5.20;69.74;101367.50;2198972;80;21472;-74
2022/03/02 04:21:01;;;;;;;85.83;37.07;;;;;;;-5.21;69.69;101361.89;2170645;80;21064;-74
2022/03/02 04:24:04;;;;;;;85.73;36.37;;;;;;;-5.30;69.72;101362.12;2193333;80;21473;-74
2022/03/02 04:27:06;;;;;;;84.67;37.10;;;;;;;-5.31;69.93;101363.02;2194847;80;20982;-74
2022/03/02 04:30:09;;;;;;;85.03;36.40;;;;;;;-5.32;69.89;101360.88;2203206;79;21103;-73
2022/03/02 04:33:12;;;;;;;85.30;38.73;;;;;;;-5.29;69.84;101354.78;2217739;79;21052;-75
2022/03/02 04:36:13;;;;;;;97.30;40.17;;;;;;;-5.38;69.65;101353.68;2213761;79;21051;-74
2022/03/02 04:39:15;;;;;;;85.80;38.17;;;;;;;-5.38;69.82;101354.97;2213315;79;21016;-74
2022/03/02 04:42:16;;;;;;;92.00;39.97;;;;;;;-5.37;69.73;101346.34;2216284;79;21014;-74
2022/03/02 04:45:18;;;;;;;83.07;36.77;;;;;;;-5.32;69.65;101342.77;2213933;79;21052;-74
2022/03/02 04:48:20;;;;;;;87.60;38.93;;;;;;;-5.42;69.71;101343.85;2215686;79;21591;-74
2022/03/02 04:51:21;;;;;;;78.20;34.57;;;;;;;-5.56;69.89;101346.75;2217743;79;21651;-74
2022/03/02 04:57:50;;;;;;;79.83;34.63;;;;;;;-5.74;70.11;101338.12;2216210;79;22146;-75
2022/03/02 05:00:52;;;;;;;82.37;37.20;;;;;;;-5.76;69.97;101336.84;2217134;79;21016;-74
2022/03/02 05:03:53;;;;;;;75.73;35.10;;;;;;;-5.81;70.07;101337.38;2217404;79;21035;-74
2022/03/02 05:06:55;;;;;;;72.63;33.43;;;;;;;-5.96;70.00;101335.16;2221375;79;21022;-74
2022/03/02 05:09:56;;;;;;;88.57;38.47;;;;;;;-6.11;70.37;101336.31;2219461;79;21047;-74
2022/03/02 05:12:57;;;;;;;85.37;36.83;;;;;;;-6.17;70.57;101324.81;2216048;79;21004;-74
2022/03/02 05:15:59;;;;;;;80.43;36.30;;;;;;;-6.23;70.58;101331.40;2220677;79;20980;-74
2022/03/02 05:19:01;;;;;;;87.23;37.17;;;;;;;-6.27;70.22;101335.78;2170144;80;21524;-75
2022/03/02 05:22:03;;;;;;;85.37;39.40;;;;;;;-6.23;70.04;101339.15;2214475;79;21044;-74
2022/03/02 05:25:08;;;;;;;83.17;37.63;;;;;;;-6.20;70.31;101341.67;2213242;79;21068;-74
2022/03/02 05:28:09;;;;;;;87.53;36.97;;;;;;;-6.13;70.20;101336.36;2214565;79;21041;-73
2022/03/02 05:31:11;;;;;;;82.03;35.47;;;;;;;-6.07;70.19;101346.16;2203082;79;21059;-74
2022/03/02 05:34:12;;;;;;;88.50;35.77;;;;;;;-6.01;70.50;101351.20;2200866;80;21299;-73
2022/03/02 05:37:13;;;;;;;83.03;35.17;;;;;;;-5.94;70.33;101356.23;2208329;80;21461;-74
2022/03/02 05:40:18;;;;;;;82.37;36.00;;;;;;;-5.84;70.44;101350.38;2201472;80;20992;-74
2022/03/02 05:43:20;;;;;;;84.40;36.93;;;;;;;-5.76;70.43;101346.34;2174845;79;21077;-75
2022/03/02 05:46:21;;;;;;;76.30;33.90;;;;;;;-5.73;70.38;101346.27;2184274;79;21568;-73
2022/03/02 05:49:25;;;;;;;84.33;37.53;;;;;;;-5.62;70.31;101356.39;2196489;80;21032;-74
2022/03/02 05:52:29;;;;;;;86.23;37.60;;;;;;;-5.50;70.26;101353.07;2186110;79;21647;-77
2022/03/02 05:55:30;;;;;;;76.03;35.83;;;;;;;-5.28;70.28;101354.73;2188740;80;21029;-78
2022/03/02 05:58:35;;;;;;;75.23;34.97;;;;;;;-5.09;70.11;101353.86;2138713;81;21016;-80
2022/03/02 06:01:38;;;;;;;74.67;35.05;;;;;;;-4.75;70.02;101353.02;2205453;79;21031;-75
2022/03/02 06:04:42;;;;;;;87.40;36.63;;;;;;;-4.48;69.89;101352.73;2186725;79;21068;-76
2022/03/02 06:07:45;;;;;;;79.30;36.10;;;;;;;-4.18;70.09;101355.39;2186839;79;21091;-79
2022/03/02 06:10:48;;;;;;;76.87;35.43;;;;;;;-3.74;70.04;101347.64;2204947;80;21092;-75
2022/03/02 06:13:51;;;;;;;85.97;37.15;;;;;;;-3.31;69.84;101349.38;2133665;81;21057;-76
2022/03/02 06:16:53;;;;;;;81.40;39.58;;;;;;;-3.02;69.21;101354.92;2148635;81;21501;-73
2022/03/02 06:19:55;;;;;;;70.90;36.65;;;;;;;-2.63;69.43;101355.80;2184165;79;21054;-70
2022/03/02 06:22:59;;;;;;;81.37;37.10;;;;;;;-2.23;68.90;101345.30;2188169;79;21654;-73
2022/03/02 06:26:02;;;;;;;89.58;38.58;;;;;;;-1.71;69.06;101348.14;2187191;79;21420;-73
2022/03/02 06:29:03;;;;;;;78.87;38.15;;;;;;;-1.08;68.77;101349.57;2186993;79;21040;-74
2022/03/02 06:32:07;;;;;;;77.45;37.65;;;;;;;-0.66;68.25;101342.66;2147488;82;21074;-75
2022/03/02 06:35:09;;;;;;;75.28;37.53;;;;;;;-0.33;67.96;101344.28;2167477;81;21097;-75
2022/03/02 06:38:11;;;;;;;71.72;36.03;;;;;;;0.25;67.71;101342.95;2170434;81;21081;-74
2022/03/02 06:41:45;;;;;;;73.07;37.48;;;;;;;0.57;66.71;101345.37;2167043;81;21555;-74
2022/03/02 06:45:02;;;;;;;82.78;39.85;;;;;;;0.73;66.23;101333.72;2127457;81;21085;-74
2022/03/02 06:48:15;;;;;;;81.12;39.80;;;;;;;1.08;66.34;101339.01;2156796;81;21631;-75
2022/03/02 06:51:22;;;;;;;74.92;37.35;;;;;;;1.48;65.50;101327.84;2172524;81;21116;-74
2022/03/02 06:54:30;;;;;;;70.12;35.08;;;;;;;1.68;65.06;101328.95;2166560;81;21029;-74
2022/03/02 06:57:34;;;;;;;74.90;35.58;;;;;;;1.91;64.62;101330.82;2168579;81;21014;-74
2022/03/02 07:00:36;;;;;;;72.20;36.75;;;;;;;2.24;64.46;101322.45;2173840;81;21050;-75
2022/03/02 07:03:51;;;;;;;71.75;37.78;;;;;;;2.48;63.90;101323.38;2168261;81;21120;-75
2022/03/02 07:06:52;;;;;;;78.55;38.75;;;;;;;2.74;63.60;101318.44;2148433;82;21542;-75
2022/03/02 07:09:55;;;;;;;81.63;40.63;;;;;;;2.89;63.17;101315.77;2150748;82;21072;-75
2022/03/02 07:13:01;;;;;;;77.50;40.03;;;;;;;3.02;62.95;101318.54;2153416;82;21008;-74
2022/03/02 07:16:04;;;;;;;73.33;39.67;;;;;;;3.25;62.76;101309.80;2168170;80;21037;-74
2022/03/02 07:19:12;;;;;;;78.55;41.25;;;;;;;3.42;62.32;101306.17;2143938;81;21675;-75
2022/03/02 07:22:24;;;;;;;76.85;40.83;;;;;;;3.64;62.16;101304.42;2166263;81;21101;-75
2022/03/02 07:25:29;;;;;;;71.90;37.73;;;;;;;4.08;61.94;101304.75;2146790;82;21092;-75
2022/03/02 07:28:40;;;;;;;72.22;37.58;;;;;;;4.38;61.29;101302.82;2148618;82;21535;-75
2022/03/02 07:31:43;;;;;;;;;;;;;;;4.69;61.01;101290.33;2116328;81;21086;-75
2022/03/02 07:34:53;;;;;;;73.12;36.38;;;;;;;5.06;60.22;101294.47;2218681;79;20166;-75
2022/03/02 07:37:55;;;;;;;64.40;34.08;;;;;;;5.23;59.99;101298.13;2164368;80;21547;-75
2022/03/02 07:40:57;;;;;;;68.95;35.05;;;;;;;5.46;59.71;101285.19;2208129;79;21018;-75
2022/03/02 07:44:01;;;;;;;60.92;33.78;;;;;;;5.77;59.00;101288.73;2214813;79;21069;-75
2022/03/02 07:47:08;;;;;;;65.00;33.15;;;;;;;5.95;58.69;101285.78;2205477;79;21080;-72
2022/03/02 07:50:16;;;;;;;59.15;32.40;;;;;;;6.31;58.26;101291.98;2159680;79;21488;-76
2022/03/02 07:53:23;;;;;;;61.73;32.73;;;;;;;6.41;57.44;101287.75;2216399;79;21007;-76
2022/03/02 07:56:32;;;;;;;61.23;33.45;;;;;;;6.60;56.75;101285.45;2183951;79;21029;-77
2022/03/02 08:00:00;;;;;;;54.00;30.68;;;;;;;6.61;56.30;101281.84;2170103;81;21712;-77
2022/03/02 08:03:07;;;;;;;59.58;32.60;;;;;;;6.87;55.82;101281.72;2213104;79;21049;-78
2022/03/02 08:06:14;;;;;;;54.63;31.15;;;;;;;7.24;55.82;101276.33;2219050;79;21056;-77
2022/03/02 08:09:15;;;;;;;55.00;31.35;;;;;;;7.39;55.15;101279.11;2215784;79;21051;-77
2022/03/02 08:12:26;;;;;;;54.80;30.50;;;;;;;7.60;55.08;101276.14;2211986;79;20995;-77
2022/03/02 08:15:35;;;;;;;53.55;30.62;;;;;;;8.02;54.81;101276.34;2217890;79;21445;-77
2022/03/02 08:18:36;;;;;;;55.08;29.72;;;;;;;8.32;54.10;101272.22;2208793;79;21092;-77
2022/03/02 08:21:43;;;;;;;54.48;29.77;;;;;;;8.56;53.16;101271.20;2209601;79;21650;-77
2022/03/02 08:24:52;;;;;;;53.58;28.20;;;;;;;8.58;52.54;101267.96;2185007;79;21071;-77
2022/03/02 08:28:02;;;;;;;58.58;30.32;;;;;;;8.60;52.16;101276.13;2184185;79;21001;-77
2022/03/02 08:31:07;;;;;;;49.75;28.23;;;;;;;8.68;52.00;101272.38;2169753;80;21061;-76
2022/03/02 08:34:15;;;;;;;46.02;26.62;;;;;;;8.86;51.42;101270.00;2183265;79;21013;-76
2022/03/02 08:37:23;;;;;;;45.50;23.70;;;;;;;8.90;50.99;101270.61;2208078;79;20993;-76
2022/03/02 08:40:28;;;;;;;48.13;25.27;;;;;;;8.90;50.58;101267.48;2212962;79;21052;-77
2022/03/02 08:43:35;;;;;;;42.55;23.92;;;;;;;9.19;50.43;101266.83;2208118;79;21064;-76
2022/03/02 08:46:41;;;;;;;35.13;20.88;;;;;;;9.43;50.02;101266.54;2182067;79;21101;-77
2022/03/02 08:49:46;;;;;;;38.40;22.82;;;;;;;9.45;47.68;101262.45;2187086;79;21044;-76
2022/03/02 08:52:54;;;;;;;37.45;22.40;;;;;;;9.34;48.96;101263.36;2173419;80;21021;-77
2022/03/02 08:55:58;;;;;;;35.45;21.33;;;;;;;9.56;48.73;101259.72;2166696;80;21053;-76
2022/03/02 08:59:01;;;;;;;35.35;20.55;;;;;;;9.65;48.17;101253.61;2180393;79;21104;-77
2022/03/02 09:02:08;;;;;;;40.52;21.23;;;;;;;9.65;47.16;101254.94;2214197;79;20984;-77
2022/03/02 09:05:15;;;;;;;36.60;20.25;;;;;;;9.63;47.14;101253.77;2220364;79;21615;-77
2022/03/02 09:08:17;;;;;;;37.58;20.95;;;;;;;9.64;47.08;101242.18;2185592;79;21096;-80
2022/03/02 09:11:19;;;;;;;37.38;20.90;;;;;;;9.72;46.85;101238.87;2154800;81;21001;-79
2022/03/02 09:14:22;;;;;;;39.33;19.27;;;;;;;9.81;46.03;101234.08;2185904;79;21036;-81
2022/03/02 09:17:28;;;;;;;39.80;21.17;;;;;;;9.78;45.91;101237.50;2183284;79;21132;-80
2022/03/02 09:20:30;;;;;;;33.95;19.50;;;;;;;9.82;45.99;101238.40;2183747;79;21238;-80
2022/03/02 09:23:42;;;;;;;33.35;18.50;;;;;;;9.87;45.43;101236.68;2185988;79;21515;-79
2022/03/02 09:26:43;;;;;;;30.55;19.12;;;;;;;9.85;45.54;101224.04;2180866;79;21572;-80
2022/03/02 09:29:47;;;;;;;30.68;18.00;;;;;;;9.66;45.37;101223.51;2183177;79;20981;-79
2022/03/02 09:32:54;;;;;;;35.63;19.57;;;;;;;9.53;44.42;101218.91;2175129;79;21084;-80
2022/03/02 09:35:58;;;;;;;31.07;17.17;;;;;;;9.39;41.23;101214.31;2119614;82;21025;-79
2022/03/02 09:39:08;;;;;;;25.95;16.20;;;;;;;9.03;43.54;101210.84;2178658;81;20986;-80
2022/03/02 09:42:26;;;;;;;32.90;18.35;;;;;;;9.22;44.11;101212.28;2177801;81;21030;-79
2022/03/02 09:45:32;;;;;;;28.27;17.65;;;;;;;9.12;43.36;101212.70;2178664;81;21012;-80
2022/03/02 09:48:42;;;;;;;25.85;15.63;;;;;;;9.13;43.68;101209.94;2148763;81;21140;-80
2022/03/02 09:51:49;;;;;;;28.50;16.30;;;;;;;9.17;42.48;101203.89;2207408;79;21009;-80
2022/03/02 09:54:57;;;;;;;25.15;15.80;;;;;;;9.09;43.12;101203.20;2219863;79;21009;-80
2022/03/02 09:58:01;;;;;;;21.20;12.58;;;;;;;9.24;43.16;101205.05;2220279;79;21529;-79
2022/03/02 10:01:02;;;;;;;14.03;9.15;;;;;;;9.26;41.53;101195.64;2221677;79;21112;-79
2022/03/02 10:04:18;;;;;;;16.77;9.45;;;;;;;8.97;41.21;101199.80;2216551;79;21095;-79
2022/03/02 10:07:28;;;;;;;19.77;13.30;;;;;;;8.57;41.04;101205.45;2217467;79;21552;-80
2022/03/02 10:10:36;;;;;;;26.02;14.35;;;;;;;8.39;41.25;101199.85;2196781;79;21024;-79
2022/03/02 10:13:38;;;;;;;21.42;12.58;;;;;;;7.74;39.40;101197.58;2218813;79;21057;-76
2022/03/02 10:16:45;;;;;;;22.40;13.50;;;;;;;7.24;40.69;101197.14;2217320;79;21300;-78
2022/03/02 10:19:54;;;;;;;23.77;12.68;;;;;;;6.83;40.11;101194.05;2226101;78;21004;-81
2022/03/02 10:23:27;;;;;;;18.92;11.50;;;;;;;6.75;40.97;101189.83;2217276;79;21029;-79
2022/03/02 10:26:32;;;;;;;23.60;14.13;;;;;;;6.82;40.32;101183.14;2176420;79;21353;-79
2022/03/02 10:29:47;;;;;;;22.52;12.68;;;;;;;6.68;40.84;101184.67;2218907;79;21029;-79
2022/03/02 10:32:51;;;;;;;23.85;13.90;;;;;;;6.61;39.53;101175.05;2207399;79;21056;-79
2022/03/02 10:36:04;;;;;;;25.23;14.30;;;;;;;6.34;40.97;101170.53;2216272;79;21048;-79
2022/03/02 10:39:07;;;;;;;22.40;13.87;;;;;;;6.64;41.38;101166.06;2210478;79;21116;-82
2022/03/02 10:42:15;;;;;;;25.60;13.22;;;;;;;7.15;41.40;101164.34;2215425;79;21870;-79
2022/03/02 10:45:22;;;;;;;22.07;12.75;;;;;;;7.59;41.21;101168.78;2216186;79;21041;-79
2022/03/02 10:48:32;;;;;;;24.72;13.65;;;;;;;7.72;40.57;101162.54;2172196;80;21064;-79
2022/03/02 10:51:37;;;;;;;23.57;13.70;;;;;;;7.58;40.47;101159.19;2154735;81;21129;-79
2022/03/02 10:54:42;;;;;;;25.68;14.30;;;;;;;7.22;39.99;101151.05;2153534;81;21566;-79
2022/03/02 10:57:47;;;;;;;24.52;14.93;;;;;;;7.16;39.91;101152.84;2189870;79;21040;-79
2022/03/02 11:00:49;;;;;;;24.87;14.78;;;;;;;7.17;40.25;101150.07;2150747;80;21082;-79
2022/03/02 11:03:51;;;;;;;24.72;14.73;;;;;;;7.17;39.46;101142.16;2145964;81;21005;-79
2022/03/02 11:06:54;;;;;;;25.57;14.35;;;;;;;7.02;40.12;101143.84;2207381;79;21096;-79
2022/03/02 11:10:02;;;;;;;22.85;14.05;;;;;;;7.02;40.07;101139.40;2215898;79;22201;-79
2022/03/02 11:13:13;;;;;;;24.30;13.62;;;;;;;6.94;40.26;101137.83;2188341;79;22346;-79
2022/03/02 11:16:21;;;;;;;25.25;13.62;;;;;;;7.09;40.11;101130.03;2183952;79;21044;-79
2022/03/02 11:19:26;;;;;;;24.92;12.50;;;;;;;7.26;39.90;101131.34;2213553;79;21021;-79
2022/03/02 11:22:28;;;;;;;24.12;12.98;;;;;;;7.28;39.91;101128.13;2212857;79;21037;-79
2022/03/02 11:25:49;;;;;;;20.88;12.93;;;;;;;7.48;40.14;101122.58;2213098;79;21068;-79
2022/03/02 11:28:55;;;;;;;24.47;11.83;;;;;;;7.82;40.42;101123.83;2213259;79;21056;-79
2022/03/02 11:31:57;;;;;;;20.10;12.30;;;;;;;8.00;40.04;101109.13;2210044;79;21088;-79
2022/03/02 11:35:00;;;;;;;22.27;11.88;;;;;;;8.03;39.67;101112.84;2194425;79;20990;-79
2022/03/02 11:38:04;;;;;;;19.80;11.60;;;;;;;7.73;39.09;101111.37;2194061;79;21501;-79
2022/03/02 11:41:06;;;;;;;21.48;11.45;;;;;;;7.38;38.25;101111.09;2194277;79;21033;-79
2022/03/02 11:44:37;;;;;;;20.62;11.73;;;;;;;7.08;38.90;101105.93;2190464;79;21001;-79
2022/03/02 11:47:55;;;;;;;;;;;;;;;6.95;38.80;101102.56;2196237;79;21532;-79
2022/03/02 11:51:23;;;;;;;19.97;11.70;;;;;;;7.01;39.04;101092.88;2188082;79;20413;-86
2022/03/02 11:54:28;;;;;;;20.62;12.73;;;;;;;6.87;39.44;101097.90;2195707;79;21029;-84
2022/03/02 11:57:50;;;;;;;21.73;11.18;;;;;;;7.05;39.63;101092.14;2191067;79;22292;-88
2022/03/02 12:00:59;;;;;;;19.82;11.78;;;;;;;7.08;39.21;101091.41;2190041;79;21032;-80
2022/03/02 12:04:03;;;;;;;21.07;12.30;;;;;;;7.03;37.80;101080.86;2195953;79;21053;-81
2022/03/02 12:07:08;;;;;;;19.12;11.53;;;;;;;6.86;38.81;101075.58;2194443;79;21041;-82
2022/03/02 12:10:34;;;;;;;21.87;11.73;;;;;;;6.82;38.90;101070.20;2194057;79;21690;-82
2022/03/02 12:13:36;;;;;;;17.25;10.90;;;;;;;6.96;39.38;101072.59;2194197;79;21056;-80
2022/03/02 12:16:47;;;;;;;20.82;11.33;;;;;;;6.85;38.11;101073.42;2195416;79;21493;-83
2022/03/02 12:20:19;;;;;;;17.23;10.35;;;;;;;6.85;38.68;101068.16;2189479;79;21112;-80
2022/03/02 12:23:23;;;;;;;14.95;9.33;;;;;;;6.85;37.59;101060.72;2193994;79;21026;-90
2022/03/02 12:26:25;;;;;;;20.25;10.45;;;;;;;6.76;38.34;101053.05;2188170;79;21065;-82
2022/03/02 12:29:31;;;;;;;16.23;9.45;;;;;;;6.95;38.32;101049.78;2200231;79;21044;-80
2022/03/02 12:32:37;;;;;;;16.67;8.88;;;;;;;7.06;38.31;101047.14;2198579;79;21061;-81
2022/03/02 12:35:39;;;;;;;14.10;8.40;;;;;;;7.06;37.50;101039.70;2212383;79;21083;-80
2022/03/02 12:38:44;;;;;;;13.08;7.62;;;;;;;6.98;37.47;101045.58;2212707;79;21037;-82
2022/03/02 12:41:45;;;;;;;11.08;7.17;;;;;;;6.74;37.05;101042.59;2186067;79;21543;-81
2022/03/02 12:44:58;;;;;;;12.98;7.20;;;;;;;6.48;36.97;101042.47;2215301;79;21605;-82
2022/03/02 12:48:06;;;;;;;17.27;8.03;;;;;;;6.41;36.60;101034.17;2214429;79;21569;-82
2022/03/02 12:51:09;;;;;;;12.33;7.17;;;;;;;6.38;37.17;101029.63;2215757;79;21029;-82
2022/03/02 12:54:14;;;;;;;8.00;4.70;;;;;;;6.41;36.29;101032.02;2212092;79;21132;-81
2022/03/02 12:57:19;;;;;;;7.65;4.97;;;;;;;6.21;35.87;101031.73;2213252;79;21005;-82
2022/03/02 13:00:26;;;;;;;15.23;7.17;;;;;;;6.08;35.84;101029.66;2214571;79;20985;-81
2022/03/02 13:03:31;;;;;;;10.20;6.78;;;;;;;5.90;35.92;101020.48;2217092;79;21025;-81
2022/03/02 13:06:40;;;;;;;17.07;9.75;;;;;;;5.91;36.71;101021.67;2213452;79;21080;-82
2022/03/02 13:09:49;;;;;;;14.93;9.00;;;;;;;5.99;36.95;101008.80;2184667;79;21030;-81
2022/03/02 13:12:59;;;;;;;17.15;8.90;;;;;;;6.18;37.08;101002.98;2213713;79;21025;-82
2022/03/02 13:16:20;;;;;;;16.95;10.00;;;;;;;6.26;37.01;100999.29;2220034;78;21060;-82
2022/03/02 13:19:25;;;;;;;;;;;;;;;6.21;37.17;101004.06;2218670;78;21037;-82
2022/03/02 13:22:37;;;;;;;21.30;12.25;;;;;;;6.24;37.43;100997.72;2216034;78;20156;-81
2022/03/02 13:25:40;;;;;;;17.42;10.30;;;;;;;6.16;37.28;100989.56;2216970;78;21076;-82
2022/03/02 13:29:02;;;;;;;17.70;10.30;;;;;;;6.13;37.17;100988.00;2215828;78;21037;-81
2022/03/02 13:32:05;;;;;;;20.55;11.60;;;;;;;6.23;37.42;100981.56;2214725;79;21124;-81
2022/03/02 13:35:11;;;;;;;21.57;12.05;;;;;;;6.27;37.43;100979.87;2157613;81;21566;-81
2022/03/02 13:38:13;;;;;;;16.17;10.25;;;;;;;6.34;37.12;100980.74;2207643;79;21543;-81
2022/03/02 13:41:53;;;;;;;16.87;10.63;;;;;;;6.26;37.77;100968.98;2186144;79;20989;-82
2022/03/02 13:45:10;;;;;;;16.82;10.18;;;;;;;6.27;37.33;100970.64;2209092;79;21045;-81
2022/03/02 13:48:18;;;;;;;14.07;8.85;;;;;;;6.11;37.40;100964.03;2210604;79;20978;-82
2022/03/02 13:51:21;;;;;;;15.50;9.80;;;;;;;6.20;37.41;100957.59;2183075;79;21032;-82
2022/03/02 13:54:27;;;;;;;16.20;8.23;;;;;;;6.23;37.17;100961.80;2140995;81;21425;-80
2022/03/02 13:57:32;;;;;;;16.37;10.35;;;;;;;6.16;37.07;100960.09;2194916;79;21059;-80
2022/03/02 14:00:34;;;;;;;21.17;9.70;;;;;;;6.00;36.28;100950.39;2190833;79;21589;-80
2022/03/02 14:03:39;;;;;;;15.60;9.65;;;;;;;5.72;36.73;100947.17;2207349;79;21028;-78
2022/03/02 14:06:43;;;;;;;16.70;10.43;;;;;;;5.64;37.01;100950.02;2207564;79;21446;-80
2022/03/02 14:09:46;;;;;;;20.97;11.83;;;;;;;5.59;37.46;100939.81;2179296;79;21083;-78
2022/03/02 14:13:00;;;;;;;21.17;10.88;;;;;;;5.62;37.73;100941.73;2205954;80;21567;-79